createdAt,value
2023-03-28T00:01:07.825Z,1.80
2023-03-28T00:03:40.423Z,2.07
2023-03-28T00:06:14.034Z,2.07
2023-03-28T00:08:41.371Z,2.90
2023-03-28T00:11:20.531Z,3.20
2023-03-28T00:13:49.342Z,2.97
2023-03-28T00:16:16.866Z,2.03
2023-03-28T00:18:43.883Z,2.70
2023-03-28T00:21:26.180Z,3.00
2023-03-28T00:23:54.973Z,2.40
2023-03-28T00:26:27.340Z,2.60
2023-03-28T00:28:55.930Z,2.57
2023-03-28T00:31:25.584Z,2.60
2023-03-28T00:33:52.945Z,2.83
2023-03-28T00:36:26.703Z,2.93
2023-03-28T00:38:53.995Z,2.83
2023-03-28T00:41:25.212Z,2.57
2023-03-28T00:43:55.006Z,2.53
2023-03-28T00:46:36.398Z,3.33
2023-03-28T00:49:09.972Z,5.20
2023-03-28T00:51:46.268Z,3.03
2023-03-28T00:54:17.877Z,4.50
2023-03-28T00:56:52.291Z,3.47
2023-03-28T00:59:23.813Z,3.73
2023-03-28T01:01:51.156Z,2.90
2023-03-28T01:04:22.264Z,5.37
2023-03-28T01:06:54.890Z,3.90
2023-03-28T01:09:24.217Z,3.27
2023-03-28T01:11:52.607Z,3.20
2023-03-28T01:14:22.742Z,3.00
2023-03-28T01:16:51.375Z,2.77
2023-03-28T01:19:44.503Z,3.10
2023-03-28T01:22:23.366Z,2.60
2023-03-28T01:25:27.274Z,3.40
2023-03-28T01:28:27.678Z,3.83
2023-03-28T01:31:40.167Z,4.13
2023-03-28T01:34:51.905Z,3.10
2023-03-28T01:38:01.934Z,3.20
2023-03-28T01:41:02.761Z,2.87
2023-03-28T01:43:36.837Z,2.80
2023-03-28T01:46:31.406Z,3.33
2023-03-28T01:49:28.614Z,2.90
2023-03-28T01:52:08.443Z,2.50
2023-03-28T01:55:05.541Z,3.03
2023-03-28T01:58:07.718Z,3.77
2023-03-28T02:00:43.396Z,3.10
2023-03-28T02:03:43.346Z,3.20
2023-03-28T02:06:11.882Z,3.63
2023-03-28T02:08:42.070Z,4.00
2023-03-28T02:11:10.706Z,3.63
2023-03-28T02:13:45.834Z,3.60
2023-03-28T02:16:15.325Z,3.77
2023-03-28T02:18:48.024Z,3.60
2023-03-28T02:21:22.793Z,3.47
2023-03-28T02:23:52.699Z,4.77
2023-03-28T02:26:21.554Z,3.70
2023-03-28T02:28:52.788Z,4.60
2023-03-28T02:31:21.558Z,4.97
2023-03-28T02:33:49.799Z,4.20
2023-03-28T02:36:45.999Z,4.70
2023-03-28T02:39:39.030Z,4.80
2023-03-28T02:42:41.011Z,5.07
2023-03-28T02:46:09.465Z,5.30
2023-03-28T02:49:06.182Z,4.27
2023-03-28T02:51:58.672Z,4.73
2023-03-28T02:54:46.063Z,4.93
2023-03-28T02:57:28.918Z,4.37
2023-03-28T03:00:10.860Z,4.70
2023-03-28T03:02:38.895Z,5.10
2023-03-28T03:05:08.006Z,4.53
2023-03-28T03:07:35.102Z,4.30
2023-03-28T03:10:02.019Z,4.17
2023-03-28T03:12:28.954Z,4.60
2023-03-28T03:14:55.927Z,4.80
2023-03-28T03:17:22.826Z,5.30
2023-03-28T03:19:49.771Z,5.20
2023-03-28T03:22:21.288Z,4.80
2023-03-28T03:24:51.078Z,5.77
2023-03-28T03:27:19.546Z,4.97
2023-03-28T03:29:48.556Z,6.00
2023-03-28T03:32:17.856Z,5.10
2023-03-28T03:34:44.842Z,4.93
2023-03-28T03:37:11.763Z,5.03
2023-03-28T03:39:38.857Z,4.70
2023-03-28T03:42:06.976Z,5.30
2023-03-28T03:44:33.850Z,5.97
2023-03-28T03:47:00.940Z,5.50
2023-03-28T03:49:27.876Z,6.47
2023-03-28T03:51:54.898Z,5.97
2023-03-28T03:54:21.809Z,5.63
2023-03-28T03:56:48.812Z,6.07
2023-03-28T03:59:16.333Z,6.10
2023-03-28T04:01:44.241Z,7.20
2023-03-28T04:04:11.662Z,7.10
2023-03-28T04:06:40.062Z,6.40
2023-03-28T04:09:08.044Z,7.63
2023-03-28T04:11:35.936Z,6.77
2023-03-28T04:14:02.934Z,6.60
2023-03-28T04:16:30.085Z,6.67
2023-03-28T04:19:09.651Z,6.67
2023-03-28T04:21:37.614Z,7.20
2023-03-28T04:24:05.060Z,7.60
2023-03-28T04:26:35.818Z,7.97
2023-03-28T04:29:03.789Z,7.53
2023-03-28T04:31:36.329Z,7.63
2023-03-28T04:34:03.936Z,7.97
2023-03-28T04:36:31.761Z,8.70
2023-03-28T04:39:02.455Z,9.10
2023-03-28T04:41:32.280Z,14.30
2023-03-28T04:43:59.258Z,11.63
2023-03-28T04:46:26.760Z,10.60
2023-03-28T04:48:56.659Z,10.33
2023-03-28T04:51:25.185Z,16.67
2023-03-28T04:53:52.207Z,10.93
2023-03-28T04:56:19.158Z,9.50
2023-03-28T04:58:46.064Z,10.03
2023-03-28T05:01:13.730Z,9.93
2023-03-28T05:03:41.015Z,10.40
2023-03-28T05:06:08.286Z,10.13
2023-03-28T05:08:35.297Z,10.40
2023-03-28T05:11:02.413Z,12.50
2023-03-28T05:13:29.626Z,11.40
2023-03-28T05:15:56.556Z,11.13
2023-03-28T05:18:23.540Z,10.67
2023-03-28T05:20:50.846Z,12.60
2023-03-28T05:23:17.912Z,18.60
2023-03-28T05:25:51.495Z,15.50
2023-03-28T05:28:18.468Z,12.83
2023-03-28T05:30:46.227Z,12.80
2023-03-28T05:33:13.808Z,11.53
2023-03-28T05:35:41.062Z,12.80
2023-03-28T05:38:08.089Z,12.93
2023-03-28T05:40:35.139Z,12.63
2023-03-28T05:43:02.031Z,12.70
2023-03-28T05:45:29.036Z,12.50
2023-03-28T05:47:57.004Z,11.87
2023-03-28T05:50:25.360Z,12.13
2023-03-28T05:52:53.089Z,11.73
2023-03-28T05:55:20.009Z,10.60
2023-03-28T05:57:46.955Z,10.27
2023-03-28T06:00:15.066Z,10.70
2023-03-28T06:02:43.574Z,9.27
2023-03-28T06:05:12.296Z,9.00
2023-03-28T06:07:42.939Z,7.57
2023-03-28T06:10:12.297Z,8.37
2023-03-28T06:12:39.627Z,6.77
2023-03-28T06:15:07.533Z,8.17
2023-03-28T06:17:34.681Z,28.33
2023-03-28T06:20:01.988Z,9.03
2023-03-28T06:22:28.929Z,7.97
2023-03-28T06:24:55.861Z,7.47
2023-03-28T06:27:22.844Z,6.90
2023-03-28T06:29:49.860Z,7.73
2023-03-28T06:32:18.318Z,8.00
2023-03-28T06:34:45.463Z,6.77
2023-03-28T06:37:12.513Z,7.23
2023-03-28T06:39:39.497Z,7.10
2023-03-28T06:42:06.404Z,7.50
2023-03-28T06:44:33.263Z,7.57
2023-03-28T06:47:00.224Z,7.20
2023-03-28T06:49:27.212Z,8.80
2023-03-28T06:51:54.154Z,7.20
2023-03-28T06:54:21.501Z,6.73
2023-03-28T06:56:48.514Z,6.40
2023-03-28T06:59:15.559Z,7.60
2023-03-28T07:01:42.577Z,6.67
2023-03-28T07:04:09.673Z,5.93
2023-03-28T07:06:36.833Z,6.67
2023-03-28T07:09:06.195Z,6.60
2023-03-28T07:11:34.015Z,6.10
2023-03-28T07:14:00.968Z,6.13
2023-03-28T07:16:27.968Z,6.33
2023-03-28T07:18:54.968Z,6.67
2023-03-28T07:21:22.014Z,5.40
2023-03-28T07:23:49.209Z,6.77
2023-03-28T07:26:16.762Z,5.63
2023-03-28T07:28:43.792Z,5.97
2023-03-28T07:31:11.283Z,6.80
2023-03-28T07:33:38.826Z,5.83
2023-03-28T07:36:14.647Z,6.03
2023-03-28T07:38:42.088Z,7.10
2023-03-28T07:41:09.250Z,5.63
2023-03-28T07:43:36.454Z,7.20
2023-03-28T07:46:06.785Z,5.90
2023-03-28T07:48:35.495Z,5.70
2023-03-28T07:51:04.015Z,6.20
2023-03-28T07:53:30.992Z,6.30
2023-03-28T07:55:58.328Z,4.77
2023-03-28T07:58:25.288Z,4.90
2023-03-28T08:00:52.572Z,5.20
2023-03-28T08:03:19.598Z,4.50
2023-03-28T08:05:52.092Z,5.27
2023-03-28T08:08:21.718Z,4.77
2023-03-28T08:10:51.676Z,4.63
2023-03-28T08:13:21.209Z,4.53
2023-03-28T08:16:06.919Z,4.00
2023-03-28T08:18:33.893Z,4.17
2023-03-28T08:21:03.553Z,3.07
2023-03-28T08:23:31.344Z,3.10
2023-03-28T08:26:06.319Z,3.23
2023-03-28T08:28:35.115Z,3.40
2023-03-28T08:31:03.077Z,3.67
2023-03-28T08:33:32.933Z,3.57
2023-03-28T08:36:00.013Z,3.27
2023-03-28T08:38:27.098Z,2.90
2023-03-28T08:41:17.684Z,3.00
2023-03-28T08:44:17.091Z,3.27
2023-03-28T08:46:46.105Z,3.27
2023-03-28T08:49:17.798Z,2.90
2023-03-28T08:51:49.059Z,3.27
2023-03-28T08:54:34.255Z,2.63
2023-03-28T08:57:04.223Z,3.33
2023-03-28T08:59:52.724Z,2.83
2023-03-28T09:02:22.100Z,2.80
2023-03-28T09:04:50.362Z,3.10
2023-03-28T09:07:30.684Z,2.80
2023-03-28T09:10:10.682Z,2.17
2023-03-28T09:13:10.424Z,1.97
2023-03-28T09:16:02.454Z,2.43
2023-03-28T09:19:17.025Z,2.50
2023-03-28T09:22:19.297Z,2.70
2023-03-28T09:25:18.608Z,2.90
2023-03-28T09:28:37.722Z,2.50
2023-03-28T09:31:10.128Z,2.83
2023-03-28T09:33:40.869Z,2.90
2023-03-28T09:36:19.209Z,3.30
2023-03-28T09:38:50.798Z,3.53
2023-03-28T09:41:27.004Z,2.87
2023-03-28T09:43:59.254Z,3.77
2023-03-28T09:46:53.475Z,3.17
2023-03-28T09:49:25.459Z,3.63
2023-03-28T09:51:56.104Z,4.17
2023-03-28T09:54:33.010Z,3.50
2023-03-28T09:57:04.930Z,3.40
2023-03-28T09:59:34.697Z,3.90
2023-03-28T10:02:04.177Z,3.03
2023-03-28T10:04:38.089Z,2.50
2023-03-28T10:07:33.901Z,2.20
2023-03-28T10:10:10.864Z,1.70
2023-03-28T10:12:39.882Z,1.70
2023-03-28T10:15:27.414Z,2.00
2023-03-28T10:17:54.544Z,1.60
2023-03-28T10:20:23.854Z,1.30
2023-03-28T10:22:56.478Z,1.83
2023-03-28T10:25:46.143Z,1.50
2023-03-28T10:28:21.047Z,1.40
2023-03-28T10:30:57.749Z,1.73
2023-03-28T10:33:30.787Z,1.83
2023-03-28T10:36:05.849Z,1.27
2023-03-28T10:38:44.841Z,1.20
2023-03-28T10:41:24.619Z,1.33
2023-03-28T10:43:53.252Z,1.40
2023-03-28T10:46:24.913Z,1.70
2023-03-28T10:49:07.581Z,2.03
2023-03-28T10:51:38.358Z,1.33
2023-03-28T10:55:03.680Z,2.03
2023-03-28T10:58:16.528Z,1.27
2023-03-28T11:00:54.589Z,1.70
2023-03-28T11:03:50.772Z,2.53
2023-03-28T11:07:05.895Z,1.33
2023-03-28T11:09:46.996Z,1.80
2023-03-28T11:12:57.268Z,1.40
2023-03-28T11:15:41.330Z,1.43
2023-03-28T11:38:38.502Z,1.27
2023-03-28T11:41:20.477Z,1.20
2023-03-28T11:43:59.053Z,1.00
2023-03-28T11:46:33.059Z,1.00
2023-03-28T11:49:26.597Z,1.20
2023-03-28T11:52:06.101Z,1.17
2023-03-28T11:54:48.801Z,2.13
2023-03-28T11:57:29.139Z,1.73
2023-03-28T12:00:32.697Z,1.00
2023-03-28T12:03:33.020Z,2.00
2023-03-28T12:06:27.543Z,1.60
2023-03-28T12:09:21.188Z,1.00
2023-03-28T12:11:57.029Z,1.20
2023-03-28T12:14:35.493Z,1.70
2023-03-28T12:17:09.971Z,1.43
2023-03-28T12:19:41.184Z,1.00
2023-03-28T12:22:19.111Z,1.50
2023-03-28T12:25:05.987Z,1.30
2023-03-28T12:28:43.732Z,1.77
2023-03-28T12:31:21.362Z,1.60
2023-03-28T12:34:18.694Z,1.60
2023-03-28T12:37:34.504Z,1.30
2023-03-28T12:40:20.219Z,1.40
2023-03-28T12:42:48.404Z,1.53
2023-03-28T12:45:24.408Z,1.30
2023-03-28T12:47:54.883Z,1.57
2023-03-28T12:50:32.885Z,1.57
2023-03-28T12:53:01.662Z,1.27
2023-03-28T12:56:13.197Z,0.90
2023-03-28T12:58:40.562Z,1.70
2023-03-28T13:01:48.254Z,1.00
2023-03-28T13:04:43.015Z,1.40
2023-03-28T13:07:55.625Z,1.60
2023-03-28T13:11:07.955Z,1.23
2023-03-28T13:14:25.177Z,1.13
2023-03-28T13:17:15.775Z,1.90
2023-03-28T13:20:35.816Z,1.67
2023-03-28T13:23:08.897Z,1.87
2023-03-28T13:25:39.283Z,1.33
2023-03-28T13:28:58.226Z,1.83
2023-03-28T13:31:27.333Z,1.43
2023-03-28T13:34:03.848Z,1.27
2023-03-28T13:36:35.666Z,1.50
2023-03-28T13:39:20.209Z,2.23
2023-03-28T13:41:57.338Z,1.70
2023-03-28T13:44:45.113Z,1.47
2023-03-28T13:47:23.280Z,1.83
2023-03-28T13:50:22.815Z,1.67
2023-03-28T13:52:50.094Z,1.80
2023-03-28T13:55:25.228Z,1.20
2023-03-28T13:57:52.965Z,1.50
2023-03-28T14:00:26.260Z,1.37
2023-03-28T14:03:00.855Z,2.77
2023-03-28T14:05:32.273Z,1.53
2023-03-28T14:08:15.858Z,1.50
2023-03-28T14:10:47.025Z,1.67
2023-03-28T14:13:34.183Z,1.33
2023-03-28T14:16:01.248Z,1.60
2023-03-28T14:18:50.568Z,1.90
2023-03-28T14:21:18.223Z,1.23
2023-03-28T14:23:59.604Z,1.87
2023-03-28T14:26:32.099Z,2.20
2023-03-28T14:29:03.837Z,1.53
2023-03-28T14:31:39.632Z,2.23
2023-03-28T14:34:25.613Z,1.70
2023-03-28T14:37:07.334Z,1.33
2023-03-28T14:39:39.550Z,1.57
2023-03-28T14:42:12.367Z,1.80
2023-03-28T14:44:57.236Z,1.53
2023-03-28T14:47:35.290Z,1.40
2023-03-28T14:50:04.744Z,1.87
2023-03-28T14:52:41.070Z,1.70
2023-03-28T14:55:14.679Z,0.93
2023-03-28T14:57:42.092Z,1.97
2023-03-28T15:00:16.582Z,1.30
2023-03-28T15:02:44.692Z,1.40
2023-03-28T15:05:22.767Z,1.00
2023-03-28T15:08:00.759Z,1.37
2023-03-28T15:10:31.955Z,1.27
2023-03-28T15:13:12.022Z,1.00
2023-03-28T15:15:45.016Z,1.03
2023-03-28T15:18:16.755Z,0.70
2023-03-28T15:20:48.059Z,0.90
2023-03-28T15:23:20.784Z,1.07
2023-03-28T15:25:47.769Z,0.87
2023-03-28T15:28:17.274Z,1.10
2023-03-28T15:30:47.882Z,1.17
2023-03-28T15:33:21.304Z,1.27
2023-03-28T15:35:49.057Z,0.90
2023-03-28T15:38:17.963Z,1.37
2023-03-28T15:40:51.304Z,1.07
2023-03-28T15:43:53.908Z,1.10
2023-03-28T15:46:28.499Z,1.30
2023-03-28T15:49:02.377Z,1.00
2023-03-28T15:51:31.279Z,1.13
2023-03-28T15:54:01.458Z,0.90
2023-03-28T15:56:31.551Z,1.00
2023-03-28T15:59:09.427Z,1.13
2023-03-28T16:01:36.428Z,1.00
2023-03-28T16:04:28.849Z,1.00
2023-03-28T16:07:12.628Z,1.30
2023-03-28T16:09:43.434Z,0.93
2023-03-28T16:12:14.894Z,1.20
2023-03-28T16:14:49.192Z,2.17
2023-03-28T16:17:16.243Z,1.20
2023-03-28T16:19:45.482Z,0.97
2023-03-28T16:22:12.664Z,1.50
2023-03-28T16:24:39.608Z,1.10
2023-03-28T16:27:06.950Z,1.33
2023-03-28T16:29:33.934Z,1.47
2023-03-28T16:32:01.142Z,1.87
2023-03-28T16:34:28.226Z,1.57
2023-03-28T16:36:57.793Z,1.27
2023-03-28T16:39:25.163Z,1.67
2023-03-28T16:41:52.248Z,2.30
2023-03-28T16:44:19.156Z,1.77
2023-03-28T16:46:46.305Z,1.50
2023-03-28T16:49:13.573Z,1.80
2023-03-28T16:51:40.618Z,1.70
2023-03-28T16:54:08.102Z,1.83
2023-03-28T16:56:35.064Z,1.80
2023-03-28T16:59:04.103Z,1.60
2023-03-28T17:01:31.616Z,1.77
2023-03-28T17:03:59.161Z,1.80
2023-03-28T17:06:27.520Z,1.83
2023-03-28T17:08:55.590Z,5.47
2023-03-28T17:11:23.420Z,1.70
2023-03-28T17:13:54.696Z,1.63
2023-03-28T17:16:23.154Z,1.77
2023-03-28T17:18:50.608Z,1.80
2023-03-28T17:21:18.694Z,1.40
2023-03-28T17:23:48.227Z,2.43
2023-03-28T17:26:15.778Z,1.60
2023-03-28T17:28:43.628Z,1.83
2023-03-28T17:31:17.689Z,2.00
2023-03-28T17:33:46.231Z,1.50
2023-03-28T17:36:21.787Z,2.10
2023-03-28T17:38:54.291Z,2.10
2023-03-28T17:41:24.605Z,2.03
2023-03-28T17:43:52.986Z,2.00
2023-03-28T17:46:20.275Z,2.07
2023-03-28T17:48:47.551Z,2.13
2023-03-28T17:51:15.430Z,2.03
2023-03-28T17:53:44.792Z,2.20
2023-03-28T17:56:12.095Z,1.90
2023-03-28T17:58:39.541Z,3.00
2023-03-28T18:01:11.607Z,1.93
2023-03-28T18:03:41.780Z,3.30
2023-03-28T18:06:09.691Z,6.10
2023-03-28T18:08:36.877Z,5.00
2023-03-28T18:11:07.973Z,3.10
2023-03-28T18:13:36.459Z,2.50
2023-03-28T18:16:05.101Z,2.30
2023-03-28T18:18:33.247Z,1.77
2023-03-28T18:21:00.346Z,1.77
2023-03-28T18:23:27.226Z,2.30
2023-03-28T18:25:54.220Z,2.03
2023-03-28T18:28:23.956Z,2.40
2023-03-28T18:30:52.590Z,3.07
2023-03-28T18:33:22.203Z,3.13
2023-03-28T18:35:49.809Z,3.50
2023-03-28T18:38:19.445Z,2.63
2023-03-28T18:40:52.927Z,2.10
2023-03-28T18:43:20.126Z,2.50
2023-03-28T18:45:54.148Z,2.10
2023-03-28T18:48:22.010Z,2.33
2023-03-28T18:50:49.705Z,2.13
2023-03-28T18:53:16.774Z,2.40
2023-03-28T18:55:43.898Z,2.27
2023-03-28T18:58:11.539Z,2.90
2023-03-28T19:00:38.840Z,2.17
2023-03-28T19:03:06.044Z,2.10
2023-03-28T19:05:37.224Z,1.80
2023-03-28T19:08:04.897Z,2.07
2023-03-28T19:10:31.860Z,2.00
2023-03-28T19:12:58.857Z,2.10
2023-03-28T19:15:25.878Z,2.10
2023-03-28T19:17:52.933Z,2.30
2023-03-28T19:20:19.865Z,1.80
2023-03-28T19:22:46.803Z,2.63
2023-03-28T19:25:14.327Z,2.07
2023-03-28T19:27:41.904Z,2.20
2023-03-28T19:30:09.775Z,2.43
2023-03-28T19:32:36.770Z,2.37
2023-03-28T19:35:03.885Z,2.40
2023-03-28T19:37:30.799Z,2.20
2023-03-28T19:40:01.377Z,2.20
2023-03-28T19:42:28.288Z,2.47
2023-03-28T19:44:55.336Z,2.30
2023-03-28T19:47:22.378Z,2.40
2023-03-28T19:49:49.417Z,2.50
2023-03-28T19:52:16.451Z,2.03
2023-03-28T19:54:43.604Z,2.17
2023-03-28T19:57:10.675Z,1.67
2023-03-28T19:59:37.715Z,2.07
2023-03-28T20:02:04.670Z,1.60
2023-03-28T20:04:31.818Z,2.33
2023-03-28T20:06:58.743Z,2.27
2023-03-28T20:09:25.782Z,2.73
2023-03-28T20:11:53.114Z,2.23
2023-03-28T20:14:21.640Z,2.33
2023-03-28T20:16:48.769Z,3.00
2023-03-28T20:19:18.213Z,2.30
2023-03-28T20:21:45.246Z,2.13
2023-03-28T20:24:12.226Z,2.80
2023-03-28T20:26:39.974Z,2.17
2023-03-28T20:29:10.338Z,2.47
2023-03-28T20:31:37.785Z,2.93
2023-03-28T20:34:04.877Z,2.50
2023-03-28T20:36:32.995Z,2.23
2023-03-28T20:39:01.059Z,2.37
2023-03-28T20:41:29.976Z,2.40
2023-03-28T20:44:03.446Z,2.00
2023-03-28T20:46:32.850Z,2.33
2023-03-28T20:49:00.263Z,2.40
2023-03-28T20:51:29.652Z,2.27
2023-03-28T20:54:01.432Z,3.00
2023-03-28T20:56:30.465Z,3.00
2023-03-28T20:58:58.851Z,2.40
2023-03-28T21:01:28.087Z,2.30
2023-03-28T21:03:56.831Z,2.20
2023-03-28T21:06:34.585Z,2.30
2023-03-28T21:09:04.671Z,2.80
2023-03-28T21:11:33.862Z,2.57
2023-03-28T21:14:01.820Z,2.50
2023-03-28T21:16:30.865Z,2.90
2023-03-28T21:18:58.678Z,2.63
2023-03-28T21:21:29.839Z,2.57
2023-03-28T21:23:57.508Z,2.60
2023-03-28T21:26:25.172Z,3.00
2023-03-28T21:28:53.033Z,2.70
2023-03-28T21:31:25.993Z,2.57
2023-03-28T21:33:56.945Z,3.07
2023-03-28T21:36:25.036Z,2.63
2023-03-28T21:38:51.957Z,2.67
2023-03-28T21:41:19.069Z,2.77
2023-03-28T21:43:47.688Z,3.00
2023-03-28T21:46:18.643Z,3.30
2023-03-28T21:48:48.291Z,2.80
2023-03-28T21:51:16.410Z,3.40
2023-03-28T21:53:43.447Z,3.23
2023-03-28T21:56:12.924Z,3.27
2023-03-28T21:58:40.466Z,2.97
2023-03-28T22:01:07.832Z,4.00
2023-03-28T22:03:38.137Z,3.83
2023-03-28T22:06:05.777Z,3.40
2023-03-28T22:08:32.684Z,4.13
2023-03-28T22:11:02.344Z,3.90
2023-03-28T22:13:30.498Z,4.03
2023-03-28T22:16:01.212Z,3.67
2023-03-28T22:18:28.407Z,3.30
2023-03-28T22:20:55.621Z,3.80
2023-03-28T22:23:23.655Z,3.90
2023-03-28T22:25:53.035Z,3.60
2023-03-28T22:28:24.620Z,3.07
2023-03-28T22:30:55.660Z,3.27
2023-03-28T22:33:25.559Z,2.77
2023-03-28T22:35:52.885Z,3.53
2023-03-28T22:38:19.941Z,3.43
2023-03-28T22:40:47.525Z,4.30
2023-03-28T22:43:15.085Z,3.70
2023-03-28T22:45:42.080Z,3.30
2023-03-28T22:48:14.616Z,3.60
2023-03-28T22:50:45.196Z,3.53
2023-03-28T22:53:20.518Z,3.03
2023-03-28T22:55:47.401Z,3.60
2023-03-28T22:58:14.852Z,3.30
2023-03-28T23:00:43.898Z,3.43
2023-03-28T23:03:10.952Z,3.73
2023-03-28T23:05:38.207Z,3.43
2023-03-28T23:08:06.443Z,3.90
2023-03-28T23:10:34.097Z,3.40
2023-03-28T23:13:01.063Z,3.70
2023-03-28T23:16:15.427Z,3.60
2023-03-28T23:18:43.263Z,4.20
2023-03-28T23:21:10.258Z,3.23
2023-03-28T23:23:37.470Z,3.67
2023-03-28T23:26:10.536Z,3.53
2023-03-28T23:28:37.486Z,3.50
2023-03-28T23:31:05.577Z,4.07
2023-03-28T23:33:32.837Z,3.40
2023-03-28T23:35:59.786Z,3.73
2023-03-28T23:38:27.388Z,4.37
2023-03-28T23:40:54.384Z,4.00
2023-03-28T23:43:21.943Z,4.03
2023-03-28T23:45:49.135Z,3.90
2023-03-28T23:48:16.343Z,3.23
2023-03-28T23:50:43.863Z,3.47
2023-03-28T23:53:11.076Z,3.83
2023-03-28T23:55:38.011Z,3.20
2023-03-28T23:58:05.041Z,3.17
